Anadarko, Oklahoma
Current Conditions -  °F | °C
As of 3:35 PM on Friday 28 Nov 2014 (Local Time) from KCHK Reporting Station
Clear Clear  
Wind Chill: 20°   Ceiling: Unl
Heat Index: 20°   Visibility: 10mi
Dew Point:   Wind: 18mph
Humidity: 46%   Direction: 210°SSW
Pressure: 29.91"   Gusts: 24mph
Location:  35.07°N, 98.24°W
Report Text: KCHK 282135Z AUTO 21016G21KT 10SM CLR 20/08 A2991 RMK AO2
Loading
Personal Weather Stations






























Interactive Weather Map New forecast layout! Learn more

10-Day Weather Forecast

Advertisements
Track Severe Weather on mobile